Willard, MT (59354)

2:47 PM MST on February 12, 2016 (GMT -0700)
Baker Municipal | | Change Station
CLOSE
Current Station
Airport
Location: Baker,
Elevation: 2972 ft
Nearby Weather Stations

Elev 2972 ft 46.35 °N, 104.26 °W | Updated 56 minutes ago

Snow
Snow
25 °F
Feels Like 14 °F
N
13
Wind Variable Wind from ESE

Today
High -- | Low -- °F
--% Chance of Precip.
Yesterday
High -- | Low -- °F
Precip. -- in
Pressure 30.45 in
Visibility 10.0 miles
Clouds Scattered Clouds 1500 ft
Overcast 3200 ft
Windchill 14 °F
Dew Point 16 °F
Humidity 69%
Rainfall 0.00 in
Snow Depth Not available.
7:05 AM 5:18 PM
Waxing Crescent, 24% visible
METAR KBHK 122051Z AUTO 11011KT 10SM SCT015 OVC032 M04/M09 A3034 RMK AO2 SLP311 T10391089 58021
Pressure 30.45 in
Visibility 10.0 miles
Clouds Scattered Clouds 1500 ft
Overcast 3200 ft
Windchill 14 °F
Dew Point 16 °F
Humidity 69%
Rainfall 0.00 in
Snow Depth Not available.
7:05 AM 5:18 PM
Waxing Crescent, 24% visible
METAR KBHK 122051Z AUTO 11011KT 10SM SCT015 OVC032 M04/M09 A3034 RMK AO2 SLP311 T10391089 58021

10-Day Weather Forecast

Almanac

Astronomy

Feb. 12, 2016 Rise Set
Actual Time
Civil Twilight
Nautical Twilight
Astronomical Twilight
Moon
Length of Visible Light
Length of Day
Tomorrow will be .
, % of the Moon is Illuminated

Today's Extremes

State Highs State Lows

Community

WunderPhotos

Upload Photos

1,892,408 photos uploaded!

WunderBlog® & News

Nearby

Air Quality

  Air Quality AQ Index Pollutant
Not available.

Snow Depth

Station Depth Elevation

Earthquake Activity

City Distance Mag. Time & Date
Minimum magnitude displayed is 2.5.

Coastal Water Temperatures

Place Temperature

Stations

Nearby Weather Stations

Station Location Temp. Windchill Dew Point Humidity Wind Precip. Elev Updated Type
                   

Watches & Warnings

There are currently no watches in effect.